Time;durP1;ratioP1;P1;durP2;ratioP2;P2;SDS_P1;SDS_P2;PMS_P1;PMS_P2;Temp;Humidity;BMP_temperature;BMP_pressure;BME280_temperature;BME280_humidity;BME280_pressure;Samples;Min_cycle;Max_cycle;Signal;HPM_P1;HPM_P2
2021/07/16 00:08:28;;;;;;;26.48;15.73;;;22.50;71.80;;;;;;21087234;28;20032;-20
2021/07/16 00:18:29;;;;;;;20.60;14.05;;;22.50;72.00;;;;;;21078904;28;20032;-19
2021/07/16 00:28:29;;;;;;;25.67;15.38;;;22.50;71.80;;;;;;21086777;28;20457;-19
2021/07/16 00:38:30;;;;;;;30.02;15.80;;;22.50;72.00;;;;;;21095180;22;20037;-19
2021/07/16 00:48:31;;;;;;;27.67;15.90;;;22.40;72.20;;;;;;21065864;28;20078;-20
2021/07/16 00:58:33;;;;;;;26.55;15.35;;;22.50;72.30;;;;;;21083705;28;20413;-20
2021/07/16 01:08:33;;;;;;;23.05;14.30;;;22.40;72.30;;;;;;21074445;28;20095;-20
2021/07/16 01:18:34;;;;;;;28.55;16.17;;;22.40;72.30;;;;;;21072853;28;20021;-20
2021/07/16 01:28:37;;;;;;;28.17;14.77;;;22.40;72.30;;;;;;21073502;28;20027;-21
2021/07/16 01:38:38;;;;;;;23.65;12.60;;;22.40;72.50;;;;;;21071958;28;20544;-20
2021/07/16 01:48:38;;;;;;;30.40;13.85;;;22.40;72.50;;;;;;21071422;28;20395;-20
2021/07/16 01:58:39;;;;;;;31.55;16.00;;;22.40;72.60;;;;;;21062561;28;20084;-20
2021/07/16 02:08:40;;;;;;;26.30;13.88;;;22.40;72.50;;;;;;21069733;28;20077;-20
2021/07/16 02:18:46;;;;;;;18.08;11.95;;;22.30;72.30;;;;;;21070079;28;20086;-20
2021/07/16 02:28:46;;;;;;;23.48;13.68;;;22.30;72.00;;;;;;21068884;28;20031;-20
2021/07/16 02:38:47;;;;;;;23.83;13.02;;;22.40;71.90;;;;;;21069098;28;20031;-20
2021/07/16 02:48:47;;;;;;;20.02;11.00;;;22.30;71.70;;;;;;21041374;28;20020;-21
2021/07/16 02:58:48;;;;;;;22.42;12.32;;;22.30;71.70;;;;;;21103178;28;20486;-19
2021/07/16 03:08:48;;;;;;;16.38;9.85;;;22.30;71.50;;;;;;21096416;28;20020;-20
2021/07/16 03:18:49;;;;;;;24.88;11.07;;;22.30;71.50;;;;;;21086196;28;20024;-19
2021/07/16 03:28:49;;;;;;;17.23;10.32;;;22.30;71.60;;;;;;21084062;28;20034;-19
2021/07/16 03:38:52;;;;;;;25.23;10.77;;;22.20;71.60;;;;;;21077650;28;20028;-19
2021/07/16 03:48:53;;;;;;;19.73;10.07;;;22.20;71.40;;;;;;21073825;28;20043;-19
2021/07/16 03:58:54;;;;;;;19.10;10.85;;;22.20;71.40;;;;;;21071726;28;20040;-21
2021/07/16 04:09:10;;;;;;;30.00;13.50;;;22.20;71.20;;;;;;21067232;28;20490;-19
2021/07/16 04:19:10;;;;;;;22.08;12.05;;;22.20;71.10;;;;;;21071616;28;20028;-19
2021/07/16 04:29:11;;;;;;;21.08;11.02;;;22.10;71.10;;;;;;21061239;28;20063;-19
2021/07/16 04:39:12;;;;;;;27.60;12.57;;;22.10;71.00;;;;;;21040218;28;20069;-19
2021/07/16 04:49:13;;;;;;;23.65;11.68;;;22.20;70.70;;;;;;21063241;28;20605;-19
2021/07/16 04:59:13;;;;;;;22.30;12.02;;;22.10;70.70;;;;;;21065280;28;20425;-20
2021/07/16 05:09:16;;;;;;;23.95;11.63;;;22.10;70.50;;;;;;21055928;28;20502;-20
2021/07/16 05:19:17;;;;;;;24.00;11.35;;;22.10;70.20;;;;;;21059470;28;20032;-20
2021/07/16 05:29:17;;;;;;;26.33;12.40;;;22.10;69.80;;;;;;21065370;28;20057;-20
2021/07/16 05:39:18;;;;;;;33.58;14.00;;;22.10;69.60;;;;;;21054452;28;20475;-20
2021/07/16 05:49:18;;;;;;;27.37;12.90;;;22.10;69.50;;;;;;21063481;28;20020;-20
2021/07/16 05:59:20;;;;;;;27.63;14.43;;;22.10;69.10;;;;;;21069012;28;20086;-21
2021/07/16 06:09:21;;;;;;;28.42;12.52;;;22.00;69.10;;;;;;21071543;28;20024;-19
2021/07/16 06:19:24;;;;;;;26.27;12.77;;;22.00;68.70;;;;;;21070993;28;20397;-22
2021/07/16 06:29:25;;;;;;;27.45;13.23;;;22.00;68.30;;;;;;21072677;28;20077;-20
2021/07/16 06:39:26;;;;;;;22.33;10.70;;;22.00;68.40;;;;;;21127855;22;20040;-19
2021/07/16 06:49:27;;;;;;;21.17;12.27;;;22.00;68.10;;;;;;21115878;28;20031;-20
2021/07/16 06:59:27;;;;;;;25.65;10.80;;;21.90;68.00;;;;;;21148690;28;20430;-20
2021/07/16 07:09:28;;;;;;;28.80;11.68;;;21.90;67.90;;;;;;21150884;28;20105;-21
2021/07/16 07:19:29;;;;;;;24.30;11.02;;;21.90;68.20;;;;;;21138666;28;20073;-20
2021/07/16 07:29:33;;;;;;;27.98;11.82;;;21.90;68.10;;;;;;21151397;28;20024;-19
2021/07/16 07:39:34;;;;;;;21.13;9.85;;;21.80;68.30;;;;;;21153431;28;20607;-20
2021/07/16 07:49:36;;;;;;;20.42;8.88;;;22.00;68.10;;;;;;21157796;28;20015;-20
2021/07/16 07:59:37;;;;;;;30.55;10.07;;;21.90;67.70;;;;;;21162865;28;20051;-20
2021/07/16 08:09:38;;;;;;;27.63;9.85;;;21.90;68.20;;;;;;21143065;28;20024;-20
2021/07/16 08:19:39;;;;;;;20.30;9.82;;;21.90;68.10;;;;;;21159965;28;20504;-20
2021/07/16 08:29:39;;;;;;;27.52;10.73;;;22.00;68.10;;;;;;21129781;28;20020;-20
2021/07/16 08:39:40;;;;;;;20.73;10.05;;;21.90;68.10;;;;;;21134499;28;20413;-20
2021/07/16 08:49:41;;;;;;;18.60;9.25;;;22.00;67.90;;;;;;21126870;28;20049;-20
2021/07/16 08:59:42;;;;;;;23.10;10.18;;;21.90;67.60;;;;;;21131673;28;20026;-19
2021/07/16 09:09:44;;;;;;;18.98;7.68;;;22.00;67.90;;;;;;21140303;28;20536;-20
2021/07/16 09:19:50;;;;;;;18.17;7.80;;;22.00;67.90;;;;;;21131126;28;20078;-20
2021/07/16 09:29:51;;;;;;;16.08;7.55;;;22.00;67.50;;;;;;21121444;28;20507;-19
2021/07/16 09:39:52;;;;;;;18.63;8.60;;;21.90;67.70;;;;;;21137306;28;20036;-19
2021/07/16 09:50:10;;;;;;;19.23;8.63;;;21.90;67.50;;;;;;21121120;28;20036;-19
2021/07/16 10:00:12;;;;;;;19.60;10.67;;;22.00;67.70;;;;;;21149840;28;20024;-20
2021/07/16 10:10:23;;;;;;;17.63;8.30;;;22.00;67.60;;;;;;21154561;28;20027;-20
2021/07/16 10:20:24;;;;;;;16.90;7.72;;;22.00;67.30;;;;;;21139947;28;20097;-19
2021/07/16 10:30:32;;;;;;;19.77;8.13;;;22.00;67.70;;;;;;21132466;28;20024;-19
2021/07/16 10:40:41;;;;;;;15.63;6.57;;;22.00;67.80;;;;;;21149206;28;20478;-20
2021/07/16 10:50:43;;;;;;;14.02;6.82;;;22.10;67.90;;;;;;21126092;28;21114;-20
2021/07/16 11:00:43;;;;;;;11.10;6.55;;;22.10;67.40;;;;;;21133185;28;20430;-19
2021/07/16 11:10:51;;;;;;;17.50;7.22;;;22.10;67.10;;;;;;21144170;28;20034;-20
2021/07/16 11:20:53;;;;;;;22.02;9.68;;;22.20;67.60;;;;;;21164838;28;20027;-20
2021/07/16 11:30:59;;;;;;;17.33;8.25;;;22.10;67.30;;;;;;21184698;28;20028;-20
2021/07/16 11:41:08;;;;;;;18.23;9.45;;;22.20;67.50;;;;;;21158403;28;20027;-19
2021/07/16 11:51:09;;;;;;;21.83;8.85;;;22.20;67.50;;;;;;21165018;28;20023;-19
2021/07/16 12:01:13;;;;;;;20.88;8.93;;;22.30;67.50;;;;;;21148261;28;20398;-20
2021/07/16 12:11:15;;;;;;;16.98;8.52;;;22.30;68.00;;;;;;21134640;28;20032;-19
2021/07/16 12:21:19;;;;;;;17.92;7.25;;;22.30;68.20;;;;;;21130426;28;20028;-19
2021/07/16 12:31:23;;;;;;;20.08;8.25;;;22.40;68.50;;;;;;21121310;28;20035;-19
2021/07/16 12:41:24;;;;;;;16.40;7.95;;;22.30;68.70;;;;;;21135397;28;20035;-20
2021/07/16 12:51:28;;;;;;;16.60;7.55;;;22.30;68.80;;;;;;21052895;22;20498;-19
2021/07/16 13:01:32;;;;;;;19.02;8.63;;;22.30;69.10;;;;;;21033481;28;20039;-19
2021/07/16 13:11:32;;;;;;;14.32;7.07;;;22.40;69.20;;;;;;21031006;28;20032;-19
2021/07/16 13:21:33;;;;;;;16.77;9.18;;;22.30;69.20;;;;;;21061202;28;20054;-20
2021/07/16 13:31:34;;;;;;;12.40;8.07;;;22.30;69.40;;;;;;21074680;28;20063;-20
2021/07/16 13:41:34;;;;;;;12.32;7.97;;;22.30;69.40;;;;;;21074550;28;20075;-20
2021/07/16 13:51:36;;;;;;;12.77;7.93;;;22.40;69.70;;;;;;21040889;28;20109;-20
2021/07/16 14:01:36;;;;;;;16.65;7.43;;;22.40;69.90;;;;;;21034890;28;20387;-20
2021/07/16 14:11:37;;;;;;;12.77;7.43;;;22.40;69.90;;;;;;21025801;28;20028;-20
2021/07/16 14:21:38;;;;;;;13.70;8.18;;;22.40;69.90;;;;;;21023612;28;20063;-20
2021/07/16 14:31:38;;;;;;;11.77;7.50;;;22.40;70.00;;;;;;21010676;28;20124;-20
2021/07/16 14:41:39;;;;;;;13.77;7.37;;;22.40;70.20;;;;;;21032351;28;20109;-20
2021/07/16 14:51:40;;;;;;;12.90;7.97;;;22.50;70.30;;;;;;21062626;28;20481;-20
2021/07/16 15:01:41;;;;;;;14.38;7.43;;;22.50;70.30;;;;;;21076685;28;20099;-19
2021/07/16 15:11:42;;;;;;;13.03;6.47;;;22.50;70.40;;;;;;21040611;28;20115;-17
2021/07/16 15:21:42;;;;;;;13.63;7.07;;;22.50;70.30;;;;;;21037422;28;20556;-19
2021/07/16 15:31:43;;;;;;;15.88;7.07;;;22.50;70.40;;;;;;21037062;28;20470;-17
2021/07/16 15:41:44;;;;;;;12.47;7.90;;;22.50;70.50;;;;;;21044807;28;20070;-17
2021/07/16 15:51:44;;;;;;;13.55;8.15;;;22.50;70.50;;;;;;21042605;28;20032;-17
2021/07/16 16:01:45;;;;;;;15.48;9.43;;;22.50;70.50;;;;;;21040539;28;20043;-17
2021/07/16 16:11:45;;;;;;;13.00;7.97;;;22.50;70.60;;;;;;21038692;28;20609;-18
2021/07/16 16:21:46;;;;;;;18.48;10.10;;;22.50;70.60;;;;;;21058656;28;20032;-16
2021/07/16 16:31:46;;;;;;;14.40;8.68;;;22.40;70.50;;;;;;21074082;28;20024;-18
2021/07/16 16:41:47;;;;;;;13.68;7.90;;;22.50;70.50;;;;;;21063803;28;20541;-18
2021/07/16 16:51:48;;;;;;;16.20;8.45;;;22.50;70.50;;;;;;21032770;28;20063;-21
2021/07/16 17:01:49;;;;;;;16.50;9.23;;;22.50;70.60;;;;;;21039044;28;20126;-19
2021/07/16 17:11:51;;;;;;;16.35;8.95;;;22.50;70.70;;;;;;21030534;28;20507;-17
2021/07/16 17:21:52;;;;;;;18.25;10.55;;;22.50;70.90;;;;;;21019853;28;20046;-18
2021/07/16 17:31:55;;;;;;;23.23;9.80;;;22.60;71.40;;;;;;21038812;28;20036;-20
2021/07/16 17:41:56;;;;;;;19.63;9.55;;;22.60;71.10;;;;;;21039285;28;20029;-22
2021/07/16 17:51:57;;;;;;;36.35;13.70;;;22.60;71.40;;;;;;21030974;28;20043;-18
2021/07/16 18:01:57;;;;;;;19.98;10.45;;;22.70;71.80;;;;;;21042117;28;20020;-18
2021/07/16 18:11:58;;;;;;;26.17;10.00;;;22.70;71.50;;;;;;21022043;28;20036;-18
2021/07/16 18:21:59;;;;;;;19.13;9.57;;;22.60;71.60;;;;;;21033791;28;20071;-18
2021/07/16 18:32:00;;;;;;;21.50;8.48;;;22.60;71.60;;;;;;21039842;28;20032;-17
2021/07/16 18:42:01;;;;;;;26.95;10.43;;;22.70;72.20;;;;;;21029601;28;20379;-17
2021/07/16 18:52:01;;;;;;;21.07;9.17;;;22.80;72.00;;;;;;21101765;22;20497;-20
2021/07/16 19:02:02;;;;;;;25.77;9.20;;;22.70;71.20;;;;;;21061878;28;20461;-18
2021/07/16 19:12:05;;;;;;;18.10;8.50;;;22.70;70.40;;;;;;21063615;28;20024;-19
2021/07/16 19:22:05;;;;;;;22.13;8.55;;;22.60;70.40;;;;;;21055982;28;20154;-20
2021/07/16 19:32:06;;;;;;;20.00;7.75;;;22.50;70.70;;;;;;21068029;28;20059;-19
2021/07/16 19:42:07;;;;;;;19.85;8.80;;;22.50;70.50;;;;;;21073917;28;20036;-19
2021/07/16 19:52:08;;;;;;;16.65;8.73;;;22.50;70.40;;;;;;21081902;28;20056;-19
2021/07/16 20:02:10;;;;;;;18.07;7.20;;;22.50;70.40;;;;;;21072148;28;20024;-19
2021/07/16 20:12:10;;;;;;;15.38;6.47;;;22.50;70.40;;;;;;21065386;28;20474;-20
2021/07/16 20:22:12;;;;;;;19.13;7.87;;;22.50;70.30;;;;;;21063622;28;20036;-19
2021/07/16 20:32:13;;;;;;;16.67;7.43;;;22.40;70.30;;;;;;21059698;28;20506;-19
2021/07/16 20:42:14;;;;;;;17.17;7.80;;;22.40;70.40;;;;;;21056664;28;20035;-19
2021/07/16 20:52:15;;;;;;;20.07;6.97;;;22.40;70.40;;;;;;21054391;28;20103;-19
2021/07/16 21:02:15;;;;;;;22.85;8.00;;;22.30;70.60;;;;;;21067685;28;20473;-19
2021/07/16 21:12:16;;;;;;;21.52;8.65;;;22.30;70.40;;;;;;21062675;28;20024;-20
2021/07/16 21:22:17;;;;;;;16.35;7.85;;;22.30;70.60;;;;;;21049369;28;20028;-19
2021/07/16 21:32:17;;;;;;;21.10;8.45;;;22.30;70.50;;;;;;21055512;28;20053;-19
2021/07/16 21:42:18;;;;;;;12.30;7.47;;;22.30;70.40;;;;;;21059094;28;20116;-19
2021/07/16 21:52:18;;;;;;;19.40;9.02;;;22.20;70.70;;;;;;21053441;28;20055;-19
2021/07/16 22:02:19;;;;;;;19.75;7.63;;;22.20;70.40;;;;;;21047040;28;20030;-19
2021/07/16 22:12:19;;;;;;;21.00;9.02;;;22.20;70.60;;;;;;21046703;28;20047;-20
2021/07/16 22:22:20;;;;;;;22.55;8.80;;;22.20;70.30;;;;;;21060752;28;20024;-20
2021/07/16 22:32:21;;;;;;;22.70;8.93;;;22.20;70.10;;;;;;21065631;28;20055;-19
2021/07/16 22:42:21;;;;;;;27.07;9.83;;;22.20;70.00;;;;;;21090606;28;20055;-20
2021/07/16 22:52:22;;;;;;;18.90;8.50;;;22.10;70.00;;;;;;21152837;28;21026;-19
2021/07/16 23:02:22;;;;;;;19.00;9.20;;;22.10;70.00;;;;;;21152456;28;20957;-19
2021/07/16 23:12:23;;;;;;;20.38;8.95;;;22.10;69.90;;;;;;21163214;28;20019;-18
2021/07/16 23:22:24;;;;;;;23.83;9.68;;;22.00;70.20;;;;;;21167143;28;20084;-19
2021/07/16 23:32:25;;;;;;;19.15;9.73;;;22.00;70.00;;;;;;21166760;28;20065;-19
2021/07/16 23:42:26;;;;;;;27.13;9.85;;;22.00;69.80;;;;;;21166363;28;20517;-19
2021/07/16 23:52:26;;;;;;;29.75;10.18;;;22.00;69.70;;;;;;21165540;28;20203;-19
